createdAt,value
2023-03-23T00:00:35.096Z,13.76
2023-03-23T00:04:00.358Z,13.78
2023-03-23T00:07:25.490Z,13.79
2023-03-23T00:10:50.727Z,13.79
2023-03-23T00:14:15.881Z,13.8
2023-03-23T00:17:41.035Z,13.82
2023-03-23T00:21:06.238Z,13.86
2023-03-23T00:24:31.420Z,13.87
2023-03-23T00:27:56.596Z,13.89
2023-03-23T00:31:21.832Z,13.91
2023-03-23T00:34:46.987Z,13.91
2023-03-23T00:38:12.173Z,13.92
2023-03-23T00:41:37.352Z,13.91
2023-03-23T00:45:02.544Z,13.92
2023-03-23T00:48:27.749Z,13.92
2023-03-23T00:51:52.866Z,13.92
2023-03-23T00:55:18.062Z,13.92
2023-03-23T00:58:43.235Z,13.91
2023-03-23T01:02:08.440Z,13.91
2023-03-23T01:05:33.648Z,13.9
2023-03-23T01:08:58.869Z,13.91
2023-03-23T01:12:24.032Z,13.93
2023-03-23T01:15:49.253Z,13.94
2023-03-23T01:19:14.420Z,13.92
2023-03-23T01:22:39.641Z,13.9
2023-03-23T01:26:04.811Z,13.87
2023-03-23T01:29:30.007Z,13.86
2023-03-23T01:32:55.207Z,13.86
2023-03-23T01:36:20.371Z,13.84
2023-03-23T01:39:45.579Z,13.83
2023-03-23T01:43:10.747Z,13.83
2023-03-23T01:46:35.910Z,13.84
2023-03-23T01:50:01.151Z,13.85
2023-03-23T01:53:26.349Z,13.86
2023-03-23T01:56:51.565Z,13.85
2023-03-23T02:00:16.748Z,13.87
2023-03-23T02:03:41.930Z,13.87
2023-03-23T02:07:07.128Z,13.87
2023-03-23T02:10:32.353Z,13.82
2023-03-23T02:13:57.559Z,13.81
2023-03-23T02:17:22.717Z,13.82
2023-03-23T02:20:47.945Z,13.81
2023-03-23T02:24:13.159Z,13.8
2023-03-23T02:27:38.331Z,13.8
2023-03-23T02:31:03.567Z,13.79
2023-03-23T02:34:28.715Z,13.76
2023-03-23T02:37:53.886Z,13.74
2023-03-23T02:41:19.093Z,13.75
2023-03-23T02:44:44.264Z,13.73
2023-03-23T02:48:09.476Z,13.73
2023-03-23T02:51:34.624Z,13.69
2023-03-23T02:54:59.846Z,13.65
2023-03-23T02:58:25.021Z,13.63
2023-03-23T03:01:50.198Z,13.59
2023-03-23T03:05:15.400Z,13.56
2023-03-23T03:08:40.590Z,13.53
2023-03-23T03:12:05.764Z,13.5
2023-03-23T03:15:30.982Z,13.5
2023-03-23T03:18:56.185Z,13.49
2023-03-23T03:22:21.393Z,13.46
2023-03-23T03:25:46.528Z,13.45
2023-03-23T03:29:11.740Z,13.45
2023-03-23T03:32:36.956Z,13.44
2023-03-23T03:36:02.162Z,13.43
2023-03-23T03:39:27.335Z,13.43
2023-03-23T03:42:52.485Z,13.44
2023-03-23T03:46:17.676Z,13.43
2023-03-23T03:49:42.886Z,13.41
2023-03-23T03:53:08.066Z,13.37
2023-03-23T03:56:33.305Z,13.34
2023-03-23T03:59:58.453Z,13.3
2023-03-23T04:03:23.632Z,13.3
2023-03-23T04:06:48.855Z,13.29
2023-03-23T04:10:14.057Z,13.27
2023-03-23T04:13:39.277Z,13.28
2023-03-23T04:17:04.449Z,13.27
2023-03-23T04:20:31.610Z,13.29
2023-03-23T04:23:54.881Z,13.28
2023-03-23T04:27:20.072Z,13.29
2023-03-23T04:30:45.314Z,13.27
2023-03-23T04:34:10.510Z,13.28
2023-03-23T04:37:35.856Z,13.28
2023-03-23T04:41:01.050Z,13.25
2023-03-23T04:44:27.962Z,13.25
2023-03-23T04:47:53.189Z,13.24
2023-03-23T04:51:18.389Z,13.24
2023-03-23T04:54:43.593Z,13.24
2023-03-23T04:58:08.860Z,13.24
2023-03-23T05:01:34.086Z,13.24
2023-03-23T05:04:59.434Z,13.25
2023-03-23T05:08:24.559Z,13.24
2023-03-23T05:11:49.752Z,13.27
2023-03-23T05:15:14.953Z,13.27
2023-03-23T05:18:40.172Z,13.27
2023-03-23T05:22:05.430Z,13.28
2023-03-23T05:25:30.670Z,13.29
2023-03-23T05:28:55.845Z,13.28
2023-03-23T05:32:21.016Z,13.24
2023-03-23T05:35:46.466Z,13.19
2023-03-23T05:39:11.498Z,13.16
2023-03-23T05:42:36.665Z,13.14
2023-03-23T05:46:01.851Z,13.12
2023-03-23T05:49:27.048Z,13.13
2023-03-23T05:52:52.244Z,13.16
2023-03-23T05:56:17.481Z,13.17
2023-03-23T05:59:42.937Z,13.22
2023-03-23T06:03:07.936Z,13.26
2023-03-23T06:06:33.035Z,13.3
2023-03-23T06:09:58.212Z,13.33
2023-03-23T06:13:23.505Z,13.41
2023-03-23T06:16:48.584Z,13.47
2023-03-23T06:20:13.748Z,13.52
2023-03-23T06:23:38.901Z,13.54
2023-03-23T06:27:04.092Z,13.57
2023-03-23T06:30:29.330Z,13.58
2023-03-23T06:33:54.423Z,13.6
2023-03-23T06:37:19.607Z,13.63
2023-03-23T06:40:44.783Z,13.63
2023-03-23T06:44:09.947Z,13.63
2023-03-23T06:47:35.141Z,13.64
2023-03-23T06:51:00.313Z,13.66
2023-03-23T06:54:25.529Z,13.7
2023-03-23T06:57:50.734Z,13.72
2023-03-23T07:01:15.902Z,13.74
2023-03-23T07:04:41.080Z,13.73
2023-03-23T07:08:06.216Z,13.7
2023-03-23T07:11:31.403Z,13.69
2023-03-23T07:14:56.581Z,13.66
2023-03-23T07:18:21.751Z,13.63
2023-03-23T07:21:46.927Z,13.63
2023-03-23T07:25:12.061Z,13.61
2023-03-23T07:28:37.231Z,13.56
2023-03-23T07:32:02.403Z,13.51
2023-03-23T07:35:27.569Z,13.46
2023-03-23T07:38:52.752Z,13.44
2023-03-23T07:42:17.959Z,13.42
2023-03-23T07:45:43.173Z,13.45
2023-03-23T07:49:08.392Z,13.46
2023-03-23T07:52:33.390Z,13.46
2023-03-23T07:55:58.580Z,13.48
2023-03-23T07:59:23.737Z,13.48
2023-03-23T08:02:48.900Z,13.48
2023-03-23T08:06:14.069Z,13.47
2023-03-23T08:09:39.236Z,13.49
2023-03-23T08:13:04.411Z,13.49
2023-03-23T08:16:29.582Z,13.47
2023-03-23T08:19:54.757Z,13.44
2023-03-23T08:23:19.912Z,13.39
2023-03-23T08:26:45.100Z,13.38
2023-03-23T08:30:10.318Z,13.4
2023-03-23T08:33:35.446Z,13.43
2023-03-23T08:37:00.622Z,13.4
2023-03-23T08:40:25.792Z,13.41
2023-03-23T08:43:50.973Z,13.48
2023-03-23T08:47:16.169Z,13.56
2023-03-23T08:50:41.323Z,13.62
2023-03-23T08:54:06.518Z,13.68
2023-03-23T08:57:31.682Z,13.74
2023-03-23T09:00:56.878Z,13.8
2023-03-23T09:04:22.092Z,13.87
2023-03-23T09:07:47.204Z,13.91
2023-03-23T09:11:12.433Z,13.99
2023-03-23T09:14:37.589Z,14
2023-03-23T09:18:02.760Z,13.92
2023-03-23T09:21:28.035Z,13.83
2023-03-23T09:24:53.170Z,13.84
2023-03-23T09:28:18.365Z,13.91
2023-03-23T09:31:43.539Z,13.97
2023-03-23T09:35:08.804Z,14.03
2023-03-23T09:38:34.088Z,14.08
2023-03-23T09:41:59.370Z,14.11
2023-03-23T09:45:24.553Z,14.1
2023-03-23T09:48:49.744Z,14.09
2023-03-23T09:52:14.932Z,14.08
2023-03-23T09:55:40.298Z,14.07
2023-03-23T09:59:05.332Z,14.04
2023-03-23T10:02:30.500Z,14.03
2023-03-23T10:05:55.681Z,14.04
2023-03-23T10:09:20.863Z,14.06
2023-03-23T10:12:46.054Z,14.08
2023-03-23T10:16:11.222Z,14.11
2023-03-23T10:19:36.395Z,14.1
2023-03-23T10:23:01.561Z,14.12
2023-03-23T10:26:26.719Z,14.12
2023-03-23T10:29:51.944Z,14.16
2023-03-23T10:33:17.096Z,14.2
2023-03-23T10:36:42.307Z,14.26
2023-03-23T10:40:07.502Z,14.33
2023-03-23T10:43:32.665Z,14.48
2023-03-23T10:46:57.869Z,14.57
2023-03-23T10:50:23.041Z,14.54
2023-03-23T10:53:48.248Z,14.47
2023-03-23T10:57:13.429Z,14.38
2023-03-23T11:00:38.612Z,14.26
2023-03-23T11:04:03.865Z,14.2
2023-03-23T11:07:29.017Z,14.22
2023-03-23T11:10:54.852Z,14.23
2023-03-23T11:14:20.059Z,14.23
2023-03-23T11:17:45.245Z,14.24
2023-03-23T11:21:10.509Z,14.3
2023-03-23T11:24:35.688Z,14.3
2023-03-23T11:28:00.866Z,14.28
2023-03-23T11:31:26.084Z,14.36
2023-03-23T11:34:51.314Z,14.5
2023-03-23T11:38:16.563Z,14.68
2023-03-23T11:41:41.736Z,14.9
2023-03-23T11:45:06.941Z,15.15
2023-03-23T11:48:32.171Z,15.33
2023-03-23T11:51:57.414Z,15.43
2023-03-23T11:55:22.687Z,15.44
2023-03-23T11:58:47.894Z,15.35
2023-03-23T12:02:21.460Z,15.22
2023-03-23T12:05:46.645Z,15.17
2023-03-23T12:09:11.877Z,15.09
2023-03-23T12:12:37.098Z,15.01
2023-03-23T12:16:02.307Z,14.9
2023-03-23T12:19:27.521Z,14.81
2023-03-23T12:22:52.712Z,14.65
2023-03-23T12:26:17.939Z,14.52
2023-03-23T12:29:43.200Z,14.43
2023-03-23T12:33:08.390Z,14.37
2023-03-23T12:36:33.627Z,14.42
2023-03-23T12:39:58.867Z,14.48
2023-03-23T12:43:24.049Z,14.56
2023-03-23T12:46:50.538Z,14.59
2023-03-23T12:50:14.478Z,14.6
2023-03-23T12:53:39.711Z,14.56
2023-03-23T12:57:04.928Z,14.54
2023-03-23T13:00:30.184Z,14.43
2023-03-23T13:03:47.379Z,14.32
2023-03-23T13:07:12.560Z,14.25
2023-03-23T13:10:37.791Z,14.18
2023-03-23T13:14:02.993Z,14.09
2023-03-23T13:17:28.192Z,14.06
2023-03-23T13:20:53.470Z,14.1
2023-03-23T13:24:18.657Z,14.19
2023-03-23T13:27:43.875Z,14.29
2023-03-23T13:31:09.078Z,14.31
2023-03-23T13:34:34.292Z,14.25
2023-03-23T13:37:59.529Z,14.2
2023-03-23T13:41:24.711Z,14.16
2023-03-23T13:44:49.955Z,14.13
2023-03-23T13:48:15.160Z,14.04
2023-03-23T13:51:40.381Z,13.98
2023-03-23T13:55:05.653Z,13.94
2023-03-23T13:58:30.812Z,13.94
2023-03-23T14:01:56.022Z,13.98
2023-03-23T14:05:21.478Z,14.03
2023-03-23T14:08:46.511Z,14.02
2023-03-23T14:12:11.741Z,14
2023-03-23T14:15:36.985Z,13.98
2023-03-23T14:19:02.434Z,13.95
2023-03-23T14:22:27.656Z,13.96
2023-03-23T14:25:52.883Z,13.93
2023-03-23T14:29:18.124Z,13.88
2023-03-23T14:32:43.340Z,13.89
2023-03-23T14:36:08.558Z,13.87
2023-03-23T14:39:33.754Z,13.89
2023-03-23T14:42:58.950Z,13.89
2023-03-23T14:46:24.194Z,13.85
2023-03-23T14:49:49.412Z,13.84
2023-03-23T14:53:14.633Z,13.85
2023-03-23T14:56:39.906Z,13.85
2023-03-23T15:00:05.128Z,13.85
2023-03-23T15:03:30.320Z,13.79
2023-03-23T15:39:08.199Z,11.62
2023-03-23T15:42:33.104Z,12.63
2023-03-23T15:46:01.303Z,12.88
2023-03-23T15:49:26.514Z,13.1
2023-03-23T15:52:51.703Z,13.26
2023-03-23T15:56:16.945Z,13.39
2023-03-23T15:59:42.123Z,13.45
2023-03-23T16:03:07.360Z,13.52
2023-03-23T16:06:32.535Z,13.59
2023-03-23T16:09:57.737Z,13.62
2023-03-23T16:13:22.982Z,13.64
2023-03-23T16:16:50.425Z,13.64
2023-03-23T16:20:13.315Z,13.66
2023-03-23T16:23:38.520Z,13.68
2023-03-23T16:27:03.714Z,13.68
2023-03-23T16:30:28.937Z,13.7
2023-03-23T16:33:45.927Z,13.7
2023-03-23T16:37:11.144Z,13.73
2023-03-23T16:40:36.372Z,13.74
2023-03-23T16:44:01.627Z,13.75
2023-03-23T16:47:26.975Z,13.72
2023-03-23T16:50:52.121Z,13.7
2023-03-23T16:54:17.447Z,13.7
2023-03-23T16:57:43.518Z,13.72
2023-03-23T17:01:08.008Z,13.73
2023-03-23T17:04:33.158Z,13.76
2023-03-23T17:07:58.320Z,13.75
2023-03-23T17:11:23.574Z,13.76
2023-03-23T17:14:48.777Z,13.77
2023-03-23T17:18:16.789Z,13.77
2023-03-23T17:21:41.920Z,13.75
2023-03-23T17:25:07.161Z,13.69
2023-03-23T17:28:32.410Z,13.67
2023-03-23T17:31:57.669Z,13.66
2023-03-23T17:35:22.899Z,13.67
2023-03-23T17:38:48.188Z,13.66
2023-03-23T17:42:13.342Z,13.65
2023-03-23T17:45:38.557Z,13.64
2023-03-23T17:49:04.047Z,13.67
2023-03-23T17:52:29.040Z,13.68
2023-03-23T17:55:54.344Z,13.7
2023-03-23T17:59:19.609Z,13.72
2023-03-23T18:02:44.950Z,13.69
2023-03-23T18:06:10.025Z,13.72
2023-03-23T18:09:35.246Z,13.73
2023-03-23T18:13:00.475Z,13.69
2023-03-23T18:16:25.661Z,13.68
2023-03-23T18:19:50.931Z,13.66
2023-03-23T18:23:16.220Z,13.64
2023-03-23T18:26:41.485Z,13.6
2023-03-23T18:30:06.732Z,13.55
2023-03-23T18:33:32.423Z,13.52
2023-03-23T18:36:57.696Z,13.51
2023-03-23T18:40:22.944Z,13.48
2023-03-23T18:43:48.195Z,13.5
2023-03-23T18:47:13.484Z,13.53
2023-03-23T18:50:38.619Z,13.54
2023-03-23T18:54:03.888Z,13.52
2023-03-23T18:57:29.173Z,13.51
2023-03-23T19:00:54.737Z,13.49
2023-03-23T19:04:19.745Z,13.49
2023-03-23T19:07:44.994Z,13.47
2023-03-23T19:11:10.251Z,13.44
2023-03-23T19:14:35.457Z,13.43
2023-03-23T19:18:00.772Z,13.43
2023-03-23T19:21:26.398Z,13.43
2023-03-23T19:24:51.274Z,13.42
2023-03-23T19:31:42.780Z,13.44
2023-03-23T19:35:07.082Z,13.43
2023-03-23T19:38:32.336Z,13.41
2023-03-23T19:41:57.516Z,13.41
2023-03-23T19:45:22.772Z,13.41
2023-03-23T19:48:47.968Z,13.4
2023-03-23T19:52:14.528Z,13.39
2023-03-23T19:55:38.498Z,13.38
2023-03-23T19:59:04.582Z,13.36
2023-03-23T20:02:29.038Z,13.36
2023-03-23T20:05:54.345Z,13.37
2023-03-23T20:09:19.802Z,13.4
2023-03-23T20:12:44.907Z,13.42
2023-03-23T20:16:10.136Z,13.41
2023-03-23T20:19:36.587Z,13.4
2023-03-23T20:23:00.673Z,13.39
2023-03-23T20:26:25.939Z,13.39
2023-03-23T20:29:51.186Z,13.41
2023-03-23T20:33:16.409Z,13.43
2023-03-23T20:36:41.624Z,13.46
2023-03-23T20:40:06.880Z,13.49
2023-03-23T20:43:32.165Z,13.5
2023-03-23T20:46:57.497Z,13.52
2023-03-23T20:50:22.809Z,13.54
2023-03-23T20:53:48.055Z,13.57
2023-03-23T20:57:13.409Z,13.58
2023-03-23T21:00:38.494Z,13.56
2023-03-23T21:04:03.767Z,13.57
2023-03-23T21:07:28.950Z,13.58
2023-03-23T21:10:54.158Z,13.57
2023-03-23T21:14:19.399Z,13.55
2023-03-23T21:17:44.645Z,13.5
2023-03-23T21:21:09.827Z,13.48
2023-03-23T21:24:35.014Z,13.47
2023-03-23T21:28:00.211Z,13.47
2023-03-23T21:31:25.434Z,13.48
2023-03-23T21:34:50.609Z,13.48
2023-03-23T21:38:15.803Z,13.44
2023-03-23T21:41:41.863Z,13.4
2023-03-23T21:45:06.177Z,13.36
2023-03-23T21:48:31.389Z,13.32
2023-03-23T21:51:56.618Z,13.28
2023-03-23T21:55:21.848Z,13.26
2023-03-23T21:58:47.042Z,13.24
2023-03-23T22:02:12.242Z,13.23
2023-03-23T22:05:37.456Z,13.26
2023-03-23T22:09:02.646Z,13.27
2023-03-23T22:12:27.864Z,13.31
2023-03-23T22:15:53.058Z,13.34
2023-03-23T22:19:18.245Z,13.34
2023-03-23T22:22:43.440Z,13.36
2023-03-23T22:26:08.639Z,13.36
2023-03-23T22:29:33.861Z,13.35
2023-03-23T22:32:59.016Z,13.38
2023-03-23T22:36:24.261Z,13.39
2023-03-23T22:39:49.475Z,13.38
2023-03-23T22:43:14.638Z,13.38
2023-03-23T22:46:39.926Z,13.36
2023-03-23T22:50:05.028Z,13.37
2023-03-23T22:53:30.218Z,13.38
2023-03-23T22:56:55.471Z,13.37
2023-03-23T23:00:20.626Z,13.35
2023-03-23T23:03:45.869Z,13.37
2023-03-23T23:07:13.084Z,13.38
2023-03-23T23:10:36.255Z,13.36
2023-03-23T23:14:01.447Z,13.34
2023-03-23T23:17:26.689Z,13.34
2023-03-23T23:20:51.873Z,13.34
2023-03-23T23:24:17.067Z,13.34
2023-03-23T23:27:42.256Z,13.33
2023-03-23T23:31:07.538Z,13.3
2023-03-23T23:34:32.626Z,13.29
2023-03-23T23:37:57.855Z,13.29
2023-03-23T23:41:23.034Z,13.3
2023-03-23T23:44:48.272Z,13.29
2023-03-23T23:48:13.437Z,13.29
2023-03-23T23:51:38.622Z,13.3
2023-03-23T23:55:03.836Z,13.29
2023-03-23T23:58:28.979Z,13.3
